Toponas, Colorado
Current Conditions -  °F | °C
As of 5:35 AM on Sunday 23 Nov 2014 (Local Time) from K20V Reporting Station
Clear Clear  
Wind Chill: 21°   Ceiling: Unl
Heat Index: 28°   Visibility: 10mi
Dew Point: 18°   Wind: 7mph
Humidity: 64%   Direction: 330°NNW
Pressure: 29.79"   Gusts: NA
Location:  40.06°N, 106.81°W
Report Text: K20V 231235Z AUTO 33006KT 10SM CLR M02/M08 A2979 RMK AO2
Loading
Personal Weather Stations






























Interactive Weather Map New forecast layout! Learn more

10-Day Weather Forecast

Advertisements
Track Severe Weather on mobile